sensor_id;sensor_type;location;lat;lon;timestamp;temperature;humidity
28767;DHT22;15921;52.034;20.650;2023-03-14T00:00:31;9.20;99.90
28767;DHT22;15921;52.034;20.650;2023-03-14T00:02:57;9.20;99.90
28767;DHT22;15921;52.034;20.650;2023-03-14T00:05:23;9.30;99.90
28767;DHT22;15921;52.034;20.650;2023-03-14T00:07:48;9.30;99.90
28767;DHT22;15921;52.034;20.650;2023-03-14T00:10:15;9.30;99.90
28767;DHT22;15921;52.034;20.650;2023-03-14T00:12:41;9.30;99.90
28767;DHT22;15921;52.034;20.650;2023-03-14T00:15:08;9.30;99.90
28767;DHT22;15921;52.034;20.650;2023-03-14T00:17:35;9.30;99.90
28767;DHT22;15921;52.034;20.650;2023-03-14T00:20:02;9.40;99.90
28767;DHT22;15921;52.034;20.650;2023-03-14T00:22:40;9.30;99.90
28767;DHT22;15921;52.034;20.650;2023-03-14T00:25:07;9.30;99.90
28767;DHT22;15921;52.034;20.650;2023-03-14T00:27:34;9.30;99.90
28767;DHT22;15921;52.034;20.650;2023-03-14T00:29:59;9.30;99.90
28767;DHT22;15921;52.034;20.650;2023-03-14T00:32:25;9.30;99.90
28767;DHT22;15921;52.034;20.650;2023-03-14T00:34:51;9.20;99.90
28767;DHT22;15921;52.034;20.650;2023-03-14T00:37:16;9.20;99.90
28767;DHT22;15921;52.034;20.650;2023-03-14T00:39:42;9.20;99.90
28767;DHT22;15921;52.034;20.650;2023-03-14T00:42:09;9.20;99.90
28767;DHT22;15921;52.034;20.650;2023-03-14T00:44:34;9.20;99.90
28767;DHT22;15921;52.034;20.650;2023-03-14T00:47:00;9.20;99.90
28767;DHT22;15921;52.034;20.650;2023-03-14T00:49:26;9.20;99.90
28767;DHT22;15921;52.034;20.650;2023-03-14T00:51:52;9.20;99.90
28767;DHT22;15921;52.034;20.650;2023-03-14T00:54:19;9.20;99.90
28767;DHT22;15921;52.034;20.650;2023-03-14T00:56:44;9.20;99.90
28767;DHT22;15921;52.034;20.650;2023-03-14T00:59:10;9.20;99.90
28767;DHT22;15921;52.034;20.650;2023-03-14T01:01:36;9.20;99.90
28767;DHT22;15921;52.034;20.650;2023-03-14T01:04:02;9.20;99.90
28767;DHT22;15921;52.034;20.650;2023-03-14T01:06:29;9.20;99.90
28767;DHT22;15921;52.034;20.650;2023-03-14T01:08:57;9.20;99.90
28767;DHT22;15921;52.034;20.650;2023-03-14T01:11:26;9.20;99.90
28767;DHT22;15921;52.034;20.650;2023-03-14T01:13:52;9.20;99.90
28767;DHT22;15921;52.034;20.650;2023-03-14T01:16:19;9.10;99.90
28767;DHT22;15921;52.034;20.650;2023-03-14T01:18:46;9.00;99.90
28767;DHT22;15921;52.034;20.650;2023-03-14T01:21:20;9.00;99.90
28767;DHT22;15921;52.034;20.650;2023-03-14T01:23:47;9.00;99.90
28767;DHT22;15921;52.034;20.650;2023-03-14T01:26:15;9.00;99.90
28767;DHT22;15921;52.034;20.650;2023-03-14T01:28:42;9.00;99.90
28767;DHT22;15921;52.034;20.650;2023-03-14T01:31:09;8.90;99.90
28767;DHT22;15921;52.034;20.650;2023-03-14T01:33:36;8.80;99.90
28767;DHT22;15921;52.034;20.650;2023-03-14T01:36:03;8.70;99.90
28767;DHT22;15921;52.034;20.650;2023-03-14T01:38:30;8.70;99.90
28767;DHT22;15921;52.034;20.650;2023-03-14T01:40:56;8.70;99.90
28767;DHT22;15921;52.034;20.650;2023-03-14T01:43:22;8.60;99.90
28767;DHT22;15921;52.034;20.650;2023-03-14T01:57:11;8.40;99.90
28767;DHT22;15921;52.034;20.650;2023-03-14T01:59:40;8.30;99.90
28767;DHT22;15921;52.034;20.650;2023-03-14T02:02:09;8.30;99.90
28767;DHT22;15921;52.034;20.650;2023-03-14T02:04:38;8.30;99.90
28767;DHT22;15921;52.034;20.650;2023-03-14T02:07:25;8.30;99.90
28767;DHT22;15921;52.034;20.650;2023-03-14T02:09:56;8.30;99.90
28767;DHT22;15921;52.034;20.650;2023-03-14T02:12:23;8.20;99.90
28767;DHT22;15921;52.034;20.650;2023-03-14T02:14:49;8.20;99.90
28767;DHT22;15921;52.034;20.650;2023-03-14T02:17:16;8.30;99.90
28767;DHT22;15921;52.034;20.650;2023-03-14T02:22:26;8.20;99.90
28767;DHT22;15921;52.034;20.650;2023-03-14T02:27:42;8.30;99.90
28767;DHT22;15921;52.034;20.650;2023-03-14T02:30:12;8.30;99.90
28767;DHT22;15921;52.034;20.650;2023-03-14T02:32:41;8.20;99.90
28767;DHT22;15921;52.034;20.650;2023-03-14T02:35:11;8.20;99.90
28767;DHT22;15921;52.034;20.650;2023-03-14T02:38:00;8.20;99.90
28767;DHT22;15921;52.034;20.650;2023-03-14T02:40:26;8.20;99.90
28767;DHT22;15921;52.034;20.650;2023-03-14T02:42:52;8.20;99.90
28767;DHT22;15921;52.034;20.650;2023-03-14T02:47:49;8.20;99.90
28767;DHT22;15921;52.034;20.650;2023-03-14T02:50:20;8.30;99.90
28767;DHT22;15921;52.034;20.650;2023-03-14T02:52:46;8.30;99.90
28767;DHT22;15921;52.034;20.650;2023-03-14T02:55:12;8.30;99.90
28767;DHT22;15921;52.034;20.650;2023-03-14T02:57:37;8.30;99.90
28767;DHT22;15921;52.034;20.650;2023-03-14T03:00:03;8.30;99.90
28767;DHT22;15921;52.034;20.650;2023-03-14T03:02:31;8.30;99.90
28767;DHT22;15921;52.034;20.650;2023-03-14T03:04:56;8.40;99.90
28767;DHT22;15921;52.034;20.650;2023-03-14T03:07:22;8.40;99.90
28767;DHT22;15921;52.034;20.650;2023-03-14T03:09:48;8.50;99.90
28767;DHT22;15921;52.034;20.650;2023-03-14T03:12:13;8.50;99.90
28767;DHT22;15921;52.034;20.650;2023-03-14T03:14:39;8.50;99.90
28767;DHT22;15921;52.034;20.650;2023-03-14T03:17:05;8.50;99.90
28767;DHT22;15921;52.034;20.650;2023-03-14T03:19:32;8.40;99.90
28767;DHT22;15921;52.034;20.650;2023-03-14T03:21:58;8.40;99.90
28767;DHT22;15921;52.034;20.650;2023-03-14T03:24:25;8.30;99.90
28767;DHT22;15921;52.034;20.650;2023-03-14T03:26:50;8.30;99.90
28767;DHT22;15921;52.034;20.650;2023-03-14T03:29:16;8.30;99.90
28767;DHT22;15921;52.034;20.650;2023-03-14T03:34:17;8.20;99.90
28767;DHT22;15921;52.034;20.650;2023-03-14T03:36:43;8.20;99.90
28767;DHT22;15921;52.034;20.650;2023-03-14T03:39:09;8.20;99.90
28767;DHT22;15921;52.034;20.650;2023-03-14T03:41:34;8.20;99.90
28767;DHT22;15921;52.034;20.650;2023-03-14T03:44:00;8.20;99.90
28767;DHT22;15921;52.034;20.650;2023-03-14T03:46:26;8.20;99.90
28767;DHT22;15921;52.034;20.650;2023-03-14T03:48:56;8.20;99.90
28767;DHT22;15921;52.034;20.650;2023-03-14T03:51:22;8.10;99.90
28767;DHT22;15921;52.034;20.650;2023-03-14T03:53:48;8.10;99.90
28767;DHT22;15921;52.034;20.650;2023-03-14T03:56:13;8.00;99.90
28767;DHT22;15921;52.034;20.650;2023-03-14T03:58:39;8.00;99.90
28767;DHT22;15921;52.034;20.650;2023-03-14T04:01:06;8.00;99.90
28767;DHT22;15921;52.034;20.650;2023-03-14T04:03:35;7.90;99.90
28767;DHT22;15921;52.034;20.650;2023-03-14T04:06:06;7.90;99.90
28767;DHT22;15921;52.034;20.650;2023-03-14T04:08:32;7.80;99.90
28767;DHT22;15921;52.034;20.650;2023-03-14T04:10:59;7.90;99.90
28767;DHT22;15921;52.034;20.650;2023-03-14T04:13:26;7.80;99.90
28767;DHT22;15921;52.034;20.650;2023-03-14T04:15:53;7.80;99.90
28767;DHT22;15921;52.034;20.650;2023-03-14T04:18:19;7.80;99.90
28767;DHT22;15921;52.034;20.650;2023-03-14T04:20:45;7.80;99.90
28767;DHT22;15921;52.034;20.650;2023-03-14T04:23:11;7.80;99.90
28767;DHT22;15921;52.034;20.650;2023-03-14T04:25:37;7.80;99.90
28767;DHT22;15921;52.034;20.650;2023-03-14T04:28:03;7.90;99.90
28767;DHT22;15921;52.034;20.650;2023-03-14T04:30:29;7.90;99.90
28767;DHT22;15921;52.034;20.650;2023-03-14T04:32:55;7.90;99.90
28767;DHT22;15921;52.034;20.650;2023-03-14T04:35:21;8.10;99.90
28767;DHT22;15921;52.034;20.650;2023-03-14T04:37:47;8.20;99.90
28767;DHT22;15921;52.034;20.650;2023-03-14T04:40:15;8.20;99.90
28767;DHT22;15921;52.034;20.650;2023-03-14T04:42:41;8.30;99.30
28767;DHT22;15921;52.034;20.650;2023-03-14T04:45:07;8.30;99.20
28767;DHT22;15921;52.034;20.650;2023-03-14T04:47:33;8.40;98.50
28767;DHT22;15921;52.034;20.650;2023-03-14T04:49:59;8.40;97.80
28767;DHT22;15921;52.034;20.650;2023-03-14T04:52:25;8.50;97.10
28767;DHT22;15921;52.034;20.650;2023-03-14T04:54:50;8.50;97.30
28767;DHT22;15921;52.034;20.650;2023-03-14T04:57:16;8.60;96.70
28767;DHT22;15921;52.034;20.650;2023-03-14T04:59:42;8.60;96.70
28767;DHT22;15921;52.034;20.650;2023-03-14T05:02:08;8.70;96.20
28767;DHT22;15921;52.034;20.650;2023-03-14T05:04:33;8.70;95.90
28767;DHT22;15921;52.034;20.650;2023-03-14T05:07:00;8.70;96.00
28767;DHT22;15921;52.034;20.650;2023-03-14T05:09:25;8.60;95.80
28767;DHT22;15921;52.034;20.650;2023-03-14T05:11:51;8.60;95.80
28767;DHT22;15921;52.034;20.650;2023-03-14T05:14:17;8.60;95.80
28767;DHT22;15921;52.034;20.650;2023-03-14T05:16:43;8.50;95.70
28767;DHT22;15921;52.034;20.650;2023-03-14T05:19:10;8.50;95.80
28767;DHT22;15921;52.034;20.650;2023-03-14T05:21:36;8.50;96.00
28767;DHT22;15921;52.034;20.650;2023-03-14T05:24:02;8.50;95.90
28767;DHT22;15921;52.034;20.650;2023-03-14T05:26:28;8.50;95.80
28767;DHT22;15921;52.034;20.650;2023-03-14T05:28:54;8.40;95.90
28767;DHT22;15921;52.034;20.650;2023-03-14T05:31:20;8.50;96.00
28767;DHT22;15921;52.034;20.650;2023-03-14T05:33:45;8.50;95.70
28767;DHT22;15921;52.034;20.650;2023-03-14T05:36:11;8.50;95.50
28767;DHT22;15921;52.034;20.650;2023-03-14T05:38:37;8.60;95.60
28767;DHT22;15921;52.034;20.650;2023-03-14T05:41:03;8.60;95.40
28767;DHT22;15921;52.034;20.650;2023-03-14T05:43:28;8.60;95.20
28767;DHT22;15921;52.034;20.650;2023-03-14T05:45:54;8.60;95.00
28767;DHT22;15921;52.034;20.650;2023-03-14T05:48:20;8.70;95.00
28767;DHT22;15921;52.034;20.650;2023-03-14T05:50:47;8.70;94.90
28767;DHT22;15921;52.034;20.650;2023-03-14T05:53:13;8.70;94.90
28767;DHT22;15921;52.034;20.650;2023-03-14T05:55:39;8.80;94.80
28767;DHT22;15921;52.034;20.650;2023-03-14T05:58:05;8.80;94.80
28767;DHT22;15921;52.034;20.650;2023-03-14T06:00:31;8.80;94.80
28767;DHT22;15921;52.034;20.650;2023-03-14T06:02:57;8.90;94.20
28767;DHT22;15921;52.034;20.650;2023-03-14T06:05:22;9.00;94.30
28767;DHT22;15921;52.034;20.650;2023-03-14T06:07:48;9.10;94.20
28767;DHT22;15921;52.034;20.650;2023-03-14T06:10:14;9.20;93.70
28767;DHT22;15921;52.034;20.650;2023-03-14T06:12:39;9.20;93.70
28767;DHT22;15921;52.034;20.650;2023-03-14T06:15:05;9.30;93.40
28767;DHT22;15921;52.034;20.650;2023-03-14T06:17:31;9.40;93.30
28767;DHT22;15921;52.034;20.650;2023-03-14T06:19:57;9.60;92.90
28767;DHT22;15921;52.034;20.650;2023-03-14T06:22:23;9.70;92.30
28767;DHT22;15921;52.034;20.650;2023-03-14T06:24:48;9.70;92.30
28767;DHT22;15921;52.034;20.650;2023-03-14T06:27:14;9.80;92.20
28767;DHT22;15921;52.034;20.650;2023-03-14T06:29:40;9.80;92.00
28767;DHT22;15921;52.034;20.650;2023-03-14T06:32:06;9.80;92.20
28767;DHT22;15921;52.034;20.650;2023-03-14T06:34:32;9.80;91.60
28767;DHT22;15921;52.034;20.650;2023-03-14T06:36:57;9.90;91.80
28767;DHT22;15921;52.034;20.650;2023-03-14T06:39:23;10.10;91.70
28767;DHT22;15921;52.034;20.650;2023-03-14T06:41:49;10.10;91.30
28767;DHT22;15921;52.034;20.650;2023-03-14T06:44:14;10.20;91.20
28767;DHT22;15921;52.034;20.650;2023-03-14T06:46:40;10.40;91.10
28767;DHT22;15921;52.034;20.650;2023-03-14T06:49:06;10.50;91.00
28767;DHT22;15921;52.034;20.650;2023-03-14T06:51:31;10.70;90.50
28767;DHT22;15921;52.034;20.650;2023-03-14T06:53:57;10.80;90.00
28767;DHT22;15921;52.034;20.650;2023-03-14T06:56:23;11.00;90.00
28767;DHT22;15921;52.034;20.650;2023-03-14T06:58:48;11.20;89.40
28767;DHT22;15921;52.034;20.650;2023-03-14T07:01:28;11.30;87.90
28767;DHT22;15921;52.034;20.650;2023-03-14T07:03:55;11.50;87.90
28767;DHT22;15921;52.034;20.650;2023-03-14T07:06:21;11.50;88.10
28767;DHT22;15921;52.034;20.650;2023-03-14T07:08:47;11.60;88.20
28767;DHT22;15921;52.034;20.650;2023-03-14T07:11:13;11.60;87.80
28767;DHT22;15921;52.034;20.650;2023-03-14T07:13:39;11.70;87.80
28767;DHT22;15921;52.034;20.650;2023-03-14T07:16:06;11.80;86.20
28767;DHT22;15921;52.034;20.650;2023-03-14T07:18:32;11.90;86.30
28767;DHT22;15921;52.034;20.650;2023-03-14T07:20:58;11.90;86.00
28767;DHT22;15921;52.034;20.650;2023-03-14T07:23:23;11.90;85.80
28767;DHT22;15921;52.034;20.650;2023-03-14T07:25:49;11.90;87.10
28767;DHT22;15921;52.034;20.650;2023-03-14T07:28:16;11.90;85.40
28767;DHT22;15921;52.034;20.650;2023-03-14T07:30:42;12.10;85.90
28767;DHT22;15921;52.034;20.650;2023-03-14T07:33:07;12.20;85.50
28767;DHT22;15921;52.034;20.650;2023-03-14T07:35:33;12.30;85.00
28767;DHT22;15921;52.034;20.650;2023-03-14T07:37:59;12.40;84.20
28767;DHT22;15921;52.034;20.650;2023-03-14T07:40:24;12.40;84.40
28767;DHT22;15921;52.034;20.650;2023-03-14T07:42:50;12.50;84.30
28767;DHT22;15921;52.034;20.650;2023-03-14T07:45:16;12.60;83.70
28767;DHT22;15921;52.034;20.650;2023-03-14T07:47:42;12.80;82.50
28767;DHT22;15921;52.034;20.650;2023-03-14T07:50:08;12.80;83.40
28767;DHT22;15921;52.034;20.650;2023-03-14T07:52:34;12.90;82.90
28767;DHT22;15921;52.034;20.650;2023-03-14T07:55:00;13.10;83.10
28767;DHT22;15921;52.034;20.650;2023-03-14T07:57:25;13.20;82.70
28767;DHT22;15921;52.034;20.650;2023-03-14T07:59:51;13.40;82.10
28767;DHT22;15921;52.034;20.650;2023-03-14T08:02:17;13.40;82.40
28767;DHT22;15921;52.034;20.650;2023-03-14T08:04:45;13.40;81.70
28767;DHT22;15921;52.034;20.650;2023-03-14T08:07:11;13.50;81.10
28767;DHT22;15921;52.034;20.650;2023-03-14T08:09:36;13.40;81.10
28767;DHT22;15921;52.034;20.650;2023-03-14T08:12:02;13.40;81.00
28767;DHT22;15921;52.034;20.650;2023-03-14T08:14:28;13.40;81.30
28767;DHT22;15921;52.034;20.650;2023-03-14T08:16:54;13.60;81.20
28767;DHT22;15921;52.034;20.650;2023-03-14T08:19:20;13.70;81.10
28767;DHT22;15921;52.034;20.650;2023-03-14T08:21:46;13.60;80.70
28767;DHT22;15921;52.034;20.650;2023-03-14T08:24:12;13.60;80.10
28767;DHT22;15921;52.034;20.650;2023-03-14T08:26:37;13.70;80.70
28767;DHT22;15921;52.034;20.650;2023-03-14T08:29:03;13.70;80.10
28767;DHT22;15921;52.034;20.650;2023-03-14T08:31:30;13.80;79.80
28767;DHT22;15921;52.034;20.650;2023-03-14T08:33:58;13.70;79.90
28767;DHT22;15921;52.034;20.650;2023-03-14T08:36:24;13.80;79.30
28767;DHT22;15921;52.034;20.650;2023-03-14T08:38:50;14.00;79.00
28767;DHT22;15921;52.034;20.650;2023-03-14T08:41:16;14.20;78.40
28767;DHT22;15921;52.034;20.650;2023-03-14T08:43:41;14.20;78.50
28767;DHT22;15921;52.034;20.650;2023-03-14T08:46:07;14.20;76.40
28767;DHT22;15921;52.034;20.650;2023-03-14T08:48:32;14.20;77.50
28767;DHT22;15921;52.034;20.650;2023-03-14T08:51:24;14.20;77.30
28767;DHT22;15921;52.034;20.650;2023-03-14T08:53:50;14.30;76.90
28767;DHT22;15921;52.034;20.650;2023-03-14T08:56:16;14.20;76.20
28767;DHT22;15921;52.034;20.650;2023-03-14T08:58:42;14.50;77.20
28767;DHT22;15921;52.034;20.650;2023-03-14T09:01:10;14.70;76.50
28767;DHT22;15921;52.034;20.650;2023-03-14T09:03:37;14.90;76.30
28767;DHT22;15921;52.034;20.650;2023-03-14T09:06:07;15.10;75.40
28767;DHT22;15921;52.034;20.650;2023-03-14T09:08:34;15.00;74.50
28767;DHT22;15921;52.034;20.650;2023-03-14T09:11:01;15.00;74.30
28767;DHT22;15921;52.034;20.650;2023-03-14T09:13:27;15.10;74.00
28767;DHT22;15921;52.034;20.650;2023-03-14T09:15:53;15.20;73.90
28767;DHT22;15921;52.034;20.650;2023-03-14T09:18:20;15.60;74.00
28767;DHT22;15921;52.034;20.650;2023-03-14T09:20:45;15.50;73.00
28767;DHT22;15921;52.034;20.650;2023-03-14T09:23:11;15.80;73.10
28767;DHT22;15921;52.034;20.650;2023-03-14T09:25:37;16.10;72.80
28767;DHT22;15921;52.034;20.650;2023-03-14T09:28:03;16.00;71.10
28767;DHT22;15921;52.034;20.650;2023-03-14T09:30:29;15.90;72.20
28767;DHT22;15921;52.034;20.650;2023-03-14T09:32:55;16.00;71.30
28767;DHT22;15921;52.034;20.650;2023-03-14T09:35:22;15.90;70.80
28767;DHT22;15921;52.034;20.650;2023-03-14T09:37:48;15.70;72.00
28767;DHT22;15921;52.034;20.650;2023-03-14T09:40:15;15.70;71.70
28767;DHT22;15921;52.034;20.650;2023-03-14T09:42:42;15.70;71.70
28767;DHT22;15921;52.034;20.650;2023-03-14T09:45:18;15.90;72.10
28767;DHT22;15921;52.034;20.650;2023-03-14T09:47:44;15.70;71.50
28767;DHT22;15921;52.034;20.650;2023-03-14T09:50:14;15.50;72.10
28767;DHT22;15921;52.034;20.650;2023-03-14T09:52:42;15.50;72.10
28767;DHT22;15921;52.034;20.650;2023-03-14T09:57:39;15.50;73.10
28767;DHT22;15921;52.034;20.650;2023-03-14T10:00:27;15.60;72.20
28767;DHT22;15921;52.034;20.650;2023-03-14T10:02:58;15.70;72.20
28767;DHT22;15921;52.034;20.650;2023-03-14T10:05:27;15.70;71.30
28767;DHT22;15921;52.034;20.650;2023-03-14T10:07:55;15.60;71.70
28767;DHT22;15921;52.034;20.650;2023-03-14T10:10:22;15.40;71.20
28767;DHT22;15921;52.034;20.650;2023-03-14T10:15:35;15.30;71.40
28767;DHT22;15921;52.034;20.650;2023-03-14T10:18:03;15.40;72.00
28767;DHT22;15921;52.034;20.650;2023-03-14T10:20:40;15.40;72.10
28767;DHT22;15921;52.034;20.650;2023-03-14T10:25:45;15.70;70.00
28767;DHT22;15921;52.034;20.650;2023-03-14T10:28:32;15.90;70.90
28767;DHT22;15921;52.034;20.650;2023-03-14T10:30:59;15.90;70.30
28767;DHT22;15921;52.034;20.650;2023-03-14T10:33:27;15.80;71.20
28767;DHT22;15921;52.034;20.650;2023-03-14T10:36:03;15.80;70.40
28767;DHT22;15921;52.034;20.650;2023-03-14T10:38:30;15.50;70.70
28767;DHT22;15921;52.034;20.650;2023-03-14T10:40:57;15.50;72.00
28767;DHT22;15921;52.034;20.650;2023-03-14T10:43:26;15.60;71.50
28767;DHT22;15921;52.034;20.650;2023-03-14T10:45:57;15.50;71.80
28767;DHT22;15921;52.034;20.650;2023-03-14T10:48:35;15.20;72.00
28767;DHT22;15921;52.034;20.650;2023-03-14T10:51:07;15.00;72.40
28767;DHT22;15921;52.034;20.650;2023-03-14T10:53:49;15.10;73.20
28767;DHT22;15921;52.034;20.650;2023-03-14T10:56:19;15.00;72.70
28767;DHT22;15921;52.034;20.650;2023-03-14T10:58:50;14.90;73.60
28767;DHT22;15921;52.034;20.650;2023-03-14T11:04:02;14.80;73.70
28767;DHT22;15921;52.034;20.650;2023-03-14T11:09:36;14.60;74.60
28767;DHT22;15921;52.034;20.650;2023-03-14T11:14:54;14.80;74.80
28767;DHT22;15921;52.034;20.650;2023-03-14T11:17:46;15.10;75.00
28767;DHT22;15921;52.034;20.650;2023-03-14T11:20:38;15.80;72.90
28767;DHT22;15921;52.034;20.650;2023-03-14T11:23:16;16.40;71.60
28767;DHT22;15921;52.034;20.650;2023-03-14T11:25:59;16.70;70.50
28767;DHT22;15921;52.034;20.650;2023-03-14T11:31:17;16.80;69.80
28767;DHT22;15921;52.034;20.650;2023-03-14T11:33:54;16.70;69.50
28767;DHT22;15921;52.034;20.650;2023-03-14T11:36:44;16.40;69.50
28767;DHT22;15921;52.034;20.650;2023-03-14T11:39:15;16.20;70.90
28767;DHT22;15921;52.034;20.650;2023-03-14T11:41:44;16.10;71.40
28767;DHT22;15921;52.034;20.650;2023-03-14T11:44:21;16.10;72.40
28767;DHT22;15921;52.034;20.650;2023-03-14T11:47:07;16.10;72.50
28767;DHT22;15921;52.034;20.650;2023-03-14T11:49:53;15.90;72.10
28767;DHT22;15921;52.034;20.650;2023-03-14T11:52:25;15.60;72.70
28767;DHT22;15921;52.034;20.650;2023-03-14T11:55:21;15.30;73.90
28767;DHT22;15921;52.034;20.650;2023-03-14T11:57:49;15.30;74.30
28767;DHT22;15921;52.034;20.650;2023-03-14T12:00:20;15.30;74.50
28767;DHT22;15921;52.034;20.650;2023-03-14T12:02:52;14.90;74.30
28767;DHT22;15921;52.034;20.650;2023-03-14T12:05:50;14.80;75.80
28767;DHT22;15921;52.034;20.650;2023-03-14T12:08:25;14.70;76.80
28767;DHT22;15921;52.034;20.650;2023-03-14T12:10:59;14.50;76.70
28767;DHT22;15921;52.034;20.650;2023-03-14T12:13:37;14.40;77.50
28767;DHT22;15921;52.034;20.650;2023-03-14T12:16:33;14.10;77.50
28767;DHT22;15921;52.034;20.650;2023-03-14T12:24:31;13.90;79.80
28767;DHT22;15921;52.034;20.650;2023-03-14T12:27:00;13.80;80.00
28767;DHT22;15921;52.034;20.650;2023-03-14T12:29:27;13.80;80.20
28767;DHT22;15921;52.034;20.650;2023-03-14T12:32:24;13.70;80.30
28767;DHT22;15921;52.034;20.650;2023-03-14T12:34:50;13.70;80.60
28767;DHT22;15921;52.034;20.650;2023-03-14T12:37:35;13.70;80.70
28767;DHT22;15921;52.034;20.650;2023-03-14T12:42:51;13.40;82.50
28767;DHT22;15921;52.034;20.650;2023-03-14T12:48:07;13.00;85.10
28767;DHT22;15921;52.034;20.650;2023-03-14T12:50:46;12.90;87.20
28767;DHT22;15921;52.034;20.650;2023-03-14T12:53:48;12.80;89.40
28767;DHT22;15921;52.034;20.650;2023-03-14T12:59:38;12.60;91.60
28767;DHT22;15921;52.034;20.650;2023-03-14T13:05:20;12.40;92.50
28767;DHT22;15921;52.034;20.650;2023-03-14T13:10:25;12.30;95.30
28767;DHT22;15921;52.034;20.650;2023-03-14T13:13:02;12.20;94.60
28767;DHT22;15921;52.034;20.650;2023-03-14T13:17:59;12.30;95.00
28767;DHT22;15921;52.034;20.650;2023-03-14T13:20:36;12.30;96.30
28767;DHT22;15921;52.034;20.650;2023-03-14T13:23:03;12.10;99.00
28767;DHT22;15921;52.034;20.650;2023-03-14T13:25:33;12.10;99.90
28767;DHT22;15921;52.034;20.650;2023-03-14T13:28:00;12.00;99.90
28767;DHT22;15921;52.034;20.650;2023-03-14T13:30:28;11.90;99.90
28767;DHT22;15921;52.034;20.650;2023-03-14T13:32:55;11.90;99.90
28767;DHT22;15921;52.034;20.650;2023-03-14T13:35:27;11.90;99.90
28767;DHT22;15921;52.034;20.650;2023-03-14T13:38:01;11.90;99.90
28767;DHT22;15921;52.034;20.650;2023-03-14T13:40:34;11.90;99.90
28767;DHT22;15921;52.034;20.650;2023-03-14T13:45:50;11.70;99.90
28767;DHT22;15921;52.034;20.650;2023-03-14T13:48:16;11.70;99.90
28767;DHT22;15921;52.034;20.650;2023-03-14T13:51:26;11.70;99.90
28767;DHT22;15921;52.034;20.650;2023-03-14T13:53:48;11.60;99.90
28767;DHT22;15921;52.034;20.650;2023-03-14T13:56:21;11.60;99.90
28767;DHT22;15921;52.034;20.650;2023-03-14T13:58:48;11.50;99.90
28767;DHT22;15921;52.034;20.650;2023-03-14T14:01:20;11.60;99.90
28767;DHT22;15921;52.034;20.650;2023-03-14T14:03:52;11.50;99.90
28767;DHT22;15921;52.034;20.650;2023-03-14T14:09:16;11.50;99.90
28767;DHT22;15921;52.034;20.650;2023-03-14T14:11:47;11.50;99.90
28767;DHT22;15921;52.034;20.650;2023-03-14T14:14:20;11.70;99.90
28767;DHT22;15921;52.034;20.650;2023-03-14T14:16:47;11.60;99.90
28767;DHT22;15921;52.034;20.650;2023-03-14T14:19:15;11.70;99.90
28767;DHT22;15921;52.034;20.650;2023-03-14T14:21:42;11.70;99.90
28767;DHT22;15921;52.034;20.650;2023-03-14T14:24:15;11.70;99.90
28767;DHT22;15921;52.034;20.650;2023-03-14T14:26:48;11.70;99.90
28767;DHT22;15921;52.034;20.650;2023-03-14T14:29:30;11.60;99.90
28767;DHT22;15921;52.034;20.650;2023-03-14T14:34:43;11.50;99.90
28767;DHT22;15921;52.034;20.650;2023-03-14T14:37:29;11.40;99.90
28767;DHT22;15921;52.034;20.650;2023-03-14T14:39:58;11.30;99.90
28767;DHT22;15921;52.034;20.650;2023-03-14T14:42:27;11.20;99.90
28767;DHT22;15921;52.034;20.650;2023-03-14T14:44:55;11.20;99.90
28767;DHT22;15921;52.034;20.650;2023-03-14T14:47:24;11.20;99.90
28767;DHT22;15921;52.034;20.650;2023-03-14T14:49:52;11.20;99.90
28767;DHT22;15921;52.034;20.650;2023-03-14T14:55:20;11.10;99.90
28767;DHT22;15921;52.034;20.650;2023-03-14T14:57:50;11.10;99.90
28767;DHT22;15921;52.034;20.650;2023-03-14T15:00:27;11.10;99.90
28767;DHT22;15921;52.034;20.650;2023-03-14T15:02:59;11.10;99.90
28767;DHT22;15921;52.034;20.650;2023-03-14T15:05:27;11.10;99.90
28767;DHT22;15921;52.034;20.650;2023-03-14T15:07:55;11.10;99.90
28767;DHT22;15921;52.034;20.650;2023-03-14T15:10:24;11.00;99.90
28767;DHT22;15921;52.034;20.650;2023-03-14T15:12:51;11.00;99.90
28767;DHT22;15921;52.034;20.650;2023-03-14T15:15:17;11.00;99.90
28767;DHT22;15921;52.034;20.650;2023-03-14T15:17:44;10.90;99.90
28767;DHT22;15921;52.034;20.650;2023-03-14T15:20:12;10.90;99.90
28767;DHT22;15921;52.034;20.650;2023-03-14T15:22:39;10.90;99.90
28767;DHT22;15921;52.034;20.650;2023-03-14T15:25:06;10.90;99.90
28767;DHT22;15921;52.034;20.650;2023-03-14T15:27:32;10.80;99.90
28767;DHT22;15921;52.034;20.650;2023-03-14T15:29:58;10.90;99.90
28767;DHT22;15921;52.034;20.650;2023-03-14T15:32:24;10.90;99.90
28767;DHT22;15921;52.034;20.650;2023-03-14T15:34:55;10.90;99.90
28767;DHT22;15921;52.034;20.650;2023-03-14T15:37:21;10.90;99.90
28767;DHT22;15921;52.034;20.650;2023-03-14T15:39:47;10.90;99.90
28767;DHT22;15921;52.034;20.650;2023-03-14T15:42:13;10.90;99.90
28767;DHT22;15921;52.034;20.650;2023-03-14T15:44:39;10.90;99.90
28767;DHT22;15921;52.034;20.650;2023-03-14T15:47:05;10.90;99.90
28767;DHT22;15921;52.034;20.650;2023-03-14T15:49:32;10.80;99.90
28767;DHT22;15921;52.034;20.650;2023-03-14T15:51:58;10.80;99.90
28767;DHT22;15921;52.034;20.650;2023-03-14T15:54:25;10.80;99.90
28767;DHT22;15921;52.034;20.650;2023-03-14T15:56:56;10.90;99.90
28767;DHT22;15921;52.034;20.650;2023-03-14T15:59:23;10.90;99.90
28767;DHT22;15921;52.034;20.650;2023-03-14T16:01:49;10.90;99.90
28767;DHT22;15921;52.034;20.650;2023-03-14T16:04:15;10.80;99.90
28767;DHT22;15921;52.034;20.650;2023-03-14T16:06:40;10.80;99.90
28767;DHT22;15921;52.034;20.650;2023-03-14T16:09:06;10.80;99.90
28767;DHT22;15921;52.034;20.650;2023-03-14T16:11:32;10.90;99.90
28767;DHT22;15921;52.034;20.650;2023-03-14T16:13:58;10.80;99.90
28767;DHT22;15921;52.034;20.650;2023-03-14T16:16:24;10.80;99.90
28767;DHT22;15921;52.034;20.650;2023-03-14T16:18:49;10.80;99.90
28767;DHT22;15921;52.034;20.650;2023-03-14T16:21:18;10.80;99.90
28767;DHT22;15921;52.034;20.650;2023-03-14T16:23:44;10.80;99.90
28767;DHT22;15921;52.034;20.650;2023-03-14T16:26:12;10.70;99.90
28767;DHT22;15921;52.034;20.650;2023-03-14T16:28:40;10.70;99.90
28767;DHT22;15921;52.034;20.650;2023-03-14T16:31:08;10.70;99.90
28767;DHT22;15921;52.034;20.650;2023-03-14T16:33:35;10.70;99.90
28767;DHT22;15921;52.034;20.650;2023-03-14T16:36:03;10.70;99.90
28767;DHT22;15921;52.034;20.650;2023-03-14T16:38:38;10.60;99.90
28767;DHT22;15921;52.034;20.650;2023-03-14T16:41:10;10.60;99.90
28767;DHT22;15921;52.034;20.650;2023-03-14T16:43:36;10.60;99.90
28767;DHT22;15921;52.034;20.650;2023-03-14T16:46:02;10.60;99.90